Terminal Aerodrome Forecast
Issued by NWS

Home | Current Version | Previous Version | Text Only | Print | Product List | Glossary On
Versions: 1 2 3 4 5 6 7 8 9 10 11 12 13 14 15 16 17 18 19 20 21
000
FTUS41 KBGM 261700
TAFELM
TAF
KELM 261727Z 2618/2718 24007KT P6SM BKN060
     FM270000 23002KT P6SM SCT060 OVC100
     FM270700 23002KT P6SM -SHRA OVC050
     FM271000 24002KT 4SM BR SCT025
      TEMPO 2710/2713 OVC020
     FM271300 25006KT P6SM BKN050=

USA.gov is the U.S. government's official web portal to all federal, state and local government web resources and services.